Terminal Aerodrome Forecast
Issued by NWS

Home | Current Version | Previous Version | Text Only | Print | Product List | Glossary On
Versions: 1 2 3 4 5 6 7 8 9 10 11 12 13 14 15 16
874
FTUS45 KABQ 190542 RRB
TAFTCC
TAF
KTCC 190542Z 1906/2006 23014KT P6SM SCT250
     FM192000 27014G22KT P6SM BKN200
     FM200200 26020G30KT P6SM SCT150=

USA.gov is the U.S. government's official web portal to all federal, state and local government web resources and services.